Spruce Creek, Pennsylvania
Current Conditions -  °F | °C
As of 12:15 AM on Tuesday 21 Oct 2014 (Local Time) from KUNV Reporting Station
Overcast Overcast  
Wind Chill: 48°   Ceiling: 9000
Heat Index: 48°   Visibility: 10mi
Dew Point: 42°   Wind: 3mph
Humidity: 80%   Direction: 220°SW
Pressure: 29.89"   Gusts: NA
Location:  40.61°N, 78.14°W
Report Text: KUNV 210415Z AUTO 22003KT 10SM OVC090 09/05 A2989 RMK AO2 T00870054
Loading
Personal Weather Stations






























Interactive Weather Map
Tropical Storm Tracking
New forecast layout! Learn more

10-Day Weather Forecast

Advertisements
Track Severe Weather on mobile